KCBM/CBM METAR and TAF weather

Enter ICAO airport designator
Station Type Date Time Source
KCBM METAR 2018/06/25 01:56 UTC NOAA

KCBM 250156Z AUTO 00000KT 10SM BKN050 25/24 A2998 RMK AO2 SLP153 T02510240 $


Station Type Date Time Source
KCBM Decoded METAR 2018/06/25 01:56 UTC NOAA

Columbus Air Force Base, MS, United States (KCBM) 33-39N 088-27W
Jun 24, 2018 - 09:56 PM EDT / 2018.06.25 0156 UTC
Wind: Calm:0
Visibility: 10 mile(s):0
Sky conditions: mostly cloudy
Temperature: 77.2 F (25.1 C)
Dew Point: 75.2 F (24.0 C)
Relative Humidity: 93%
Pressure (altimeter): 29.98 in. Hg (1015 hPa)
ob: KCBM 250156Z AUTO 00000KT 10SM BKN050 25/24 A2998 RMK AO2 SLP153 T02510240
cycle: 2

Station Type Date Time Source
KCBM TAF 2018/06/24 20:59 UTC NOAA

TAF
AMD KCBM 242020Z 2420/2521 25012KT 9999 FEW045 QNH2990INS
BECMG 2423/2424 20006KT 9999 SCT040 QNH2992INS
BECMG 2511/2512 20006KT 9999 SCT017 BKN040 QNH3004INS
BECMG 2514/2515 20006KT 9999 FEW030 QNH3001INS TX34/2420Z TN25/2511Z
AMD LAST NO
AMDS AFT 2420 NEXT 2509


Example: see airport list